createdAt,value
2018-01-06T00:00:57.957Z,0
2018-01-06T00:01:58.613Z,0
2018-01-06T00:02:58.856Z,0
2018-01-06T00:03:59.137Z,0
2018-01-06T00:04:58.700Z,0
2018-01-06T00:05:58.709Z,0
2018-01-06T00:06:58.600Z,0
2018-01-06T00:07:58.731Z,0
2018-01-06T00:08:58.959Z,0
2018-01-06T00:09:59.154Z,0
2018-01-06T00:10:59.720Z,0
2018-01-06T00:11:58.760Z,0
2018-01-06T00:12:59.043Z,0
2018-01-06T00:13:59.472Z,0
2018-01-06T00:14:59.204Z,0
2018-01-06T00:15:59.649Z,0
2018-01-06T00:16:59.849Z,0
2018-01-06T00:17:59.841Z,0
2018-01-06T00:19:00.206Z,0
2018-01-06T00:20:00.945Z,0
2018-01-06T00:21:01.340Z,0
2018-01-06T00:22:00.700Z,0
2018-01-06T00:23:00.687Z,0
2018-01-06T00:24:01.136Z,0
2018-01-06T00:25:00.868Z,0
2018-01-06T00:26:01.027Z,0
2018-01-06T00:27:01.477Z,0
2018-01-06T00:28:02.378Z,0
2018-01-06T00:29:02.356Z,0
2018-01-06T00:30:02.052Z,0
2018-01-06T00:31:02.234Z,0
2018-01-06T00:32:01.716Z,0
2018-01-06T00:33:01.715Z,0
2018-01-06T00:34:03.307Z,0
2018-01-06T00:35:01.977Z,0
2018-01-06T00:36:02.456Z,0
2018-01-06T00:37:02.470Z,0
2018-01-06T00:38:03.237Z,0
2018-01-06T00:39:02.867Z,0
2018-01-06T00:40:02.804Z,0
2018-01-06T00:41:03.057Z,0
2018-01-06T00:42:02.895Z,0
2018-01-06T00:43:02.856Z,0
2018-01-06T00:44:02.380Z,0
2018-01-06T00:45:02.666Z,0
2018-01-06T00:46:03.443Z,0
2018-01-06T00:47:02.514Z,0
2018-01-06T00:48:03.636Z,0
2018-01-06T00:49:03.658Z,0
2018-01-06T00:50:02.460Z,0
2018-01-06T00:51:03.576Z,0
2018-01-06T00:52:02.869Z,0
2018-01-06T00:53:03.415Z,0
2018-01-06T00:54:05.344Z,0
2018-01-06T00:55:03.514Z,0
2018-01-06T00:56:03.715Z,0
2018-01-06T00:57:05.053Z,0
2018-01-06T00:58:03.460Z,0
2018-01-06T00:59:02.881Z,0
2018-01-06T01:00:18.542Z,0
2018-01-06T01:01:03.190Z,0
2018-01-06T01:02:05.354Z,0
2018-01-06T01:03:04.161Z,0
2018-01-06T01:04:04.049Z,0
2018-01-06T01:05:04.535Z,0
2018-01-06T01:06:04.389Z,0
2018-01-06T01:07:04.515Z,0
2018-01-06T01:08:04.410Z,0
2018-01-06T01:09:04.986Z,0
2018-01-06T01:10:04.237Z,0
2018-01-06T01:11:05.400Z,0
2018-01-06T01:12:05.030Z,0
2018-01-06T01:13:04.892Z,0
2018-01-06T01:14:05.194Z,0
2018-01-06T01:15:05.639Z,0
2018-01-06T01:16:05.759Z,0
2018-01-06T01:17:06.553Z,0
2018-01-06T01:18:07.623Z,0
2018-01-06T01:19:06.924Z,0
2018-01-06T01:20:07.510Z,0
2018-01-06T01:21:06.906Z,0
2018-01-06T01:22:07.375Z,0
2018-01-06T01:23:07.978Z,0
2018-01-06T01:24:07.620Z,0
2018-01-06T01:25:08.030Z,0
2018-01-06T01:26:08.378Z,0
2018-01-06T01:27:08.452Z,0
2018-01-06T01:28:08.194Z,0
2018-01-06T01:29:08.392Z,0
2018-01-06T01:30:07.714Z,0
2018-01-06T01:31:10.222Z,0
2018-01-06T01:32:08.063Z,0
2018-01-06T01:33:08.615Z,0
2018-01-06T01:34:08.843Z,0
2018-01-06T01:35:08.329Z,0
2018-01-06T01:36:08.690Z,0
2018-01-06T01:37:08.647Z,0
2018-01-06T01:38:09.271Z,0
2018-01-06T01:39:09.028Z,0
2018-01-06T01:40:08.946Z,0
2018-01-06T01:41:09.126Z,0
2018-01-06T01:42:09.373Z,0
2018-01-06T01:43:09.881Z,0
2018-01-06T01:44:09.258Z,0
2018-01-06T01:45:09.498Z,0
2018-01-06T01:46:09.805Z,0
2018-01-06T01:47:10.386Z,0
2018-01-06T01:48:10.072Z,0
2018-01-06T01:49:10.490Z,0
2018-01-06T01:50:10.629Z,0
2018-01-06T01:51:10.581Z,0
2018-01-06T01:52:11.043Z,0
2018-01-06T01:53:10.988Z,0
2018-01-06T01:54:11.432Z,0
2018-01-06T01:55:11.903Z,0
2018-01-06T01:56:11.392Z,0
2018-01-06T01:57:11.806Z,0
2018-01-06T01:58:11.880Z,0
2018-01-06T01:59:12.642Z,0
2018-01-06T02:00:27.148Z,0
2018-01-06T02:01:12.383Z,0
2018-01-06T02:02:12.536Z,0
2018-01-06T02:03:12.343Z,0
2018-01-06T02:04:13.144Z,0
2018-01-06T02:05:13.078Z,0
2018-01-06T02:06:12.735Z,0
2018-01-06T02:07:13.228Z,0
2018-01-06T02:08:13.689Z,0
2018-01-06T02:09:13.974Z,0
2018-01-06T02:10:14.239Z,0
2018-01-06T02:11:13.924Z,0
2018-01-06T02:12:14.256Z,0
2018-01-06T02:13:13.762Z,0
2018-01-06T02:14:14.461Z,0
2018-01-06T02:15:14.525Z,0
2018-01-06T02:16:14.184Z,0
2018-01-06T02:17:14.565Z,0
2018-01-06T02:18:14.391Z,0
2018-01-06T02:19:15.052Z,0
2018-01-06T02:20:14.964Z,0
2018-01-06T02:21:15.332Z,0
2018-01-06T02:22:15.370Z,0
2018-01-06T02:23:15.460Z,0
2018-01-06T02:24:15.182Z,0
2018-01-06T02:25:15.347Z,0
2018-01-06T02:26:15.131Z,0
2018-01-06T02:27:15.097Z,0
2018-01-06T02:28:16.054Z,0
2018-01-06T02:29:15.706Z,0
2018-01-06T02:30:16.090Z,0
2018-01-06T02:31:16.125Z,0
2018-01-06T02:32:16.218Z,0
2018-01-06T02:33:16.618Z,0
2018-01-06T02:34:17.026Z,0
2018-01-06T02:35:17.032Z,0
2018-01-06T02:36:17.163Z,0
2018-01-06T02:37:16.832Z,0
2018-01-06T02:38:17.647Z,0
2018-01-06T02:39:17.928Z,0
2018-01-06T02:40:17.812Z,0
2018-01-06T02:41:17.987Z,0
2018-01-06T02:42:18.137Z,0
2018-01-06T02:43:19.058Z,0
2018-01-06T02:44:19.290Z,0
2018-01-06T02:45:18.089Z,0
2018-01-06T02:46:18.704Z,0
2018-01-06T02:47:19.070Z,0
2018-01-06T02:48:19.154Z,0
2018-01-06T02:49:19.591Z,0
2018-01-06T02:50:19.615Z,0
2018-01-06T02:51:20.260Z,0
2018-01-06T02:52:20.136Z,0
2018-01-06T02:53:20.175Z,0
2018-01-06T02:54:20.704Z,0
2018-01-06T02:55:20.730Z,0
2018-01-06T02:56:20.240Z,0
2018-01-06T02:57:20.425Z,0
2018-01-06T02:58:20.587Z,0
2018-01-06T02:59:20.678Z,0
2018-01-06T03:00:20.561Z,0
2018-01-06T03:01:21.333Z,0
2018-01-06T03:02:21.148Z,0
2018-01-06T03:03:21.575Z,0
2018-01-06T03:04:21.487Z,0
2018-01-06T03:05:22.297Z,0
2018-01-06T03:06:22.029Z,0
2018-01-06T03:07:22.161Z,0
2018-01-06T03:08:22.288Z,0
2018-01-06T03:09:22.983Z,0
2018-01-06T03:10:22.802Z,0
2018-01-06T03:11:22.694Z,0
2018-01-06T03:12:23.456Z,0
2018-01-06T03:13:23.106Z,0
2018-01-06T03:14:23.414Z,0
2018-01-06T03:15:24.533Z,0
2018-01-06T03:16:24.396Z,0
2018-01-06T03:17:24.009Z,0
2018-01-06T03:18:24.368Z,0
2018-01-06T03:19:24.230Z,0
2018-01-06T03:20:25.063Z,0
2018-01-06T03:21:24.598Z,0
2018-01-06T03:22:25.050Z,0
2018-01-06T03:23:25.710Z,0
2018-01-06T03:24:25.495Z,0
2018-01-06T03:25:25.960Z,0
2018-01-06T03:26:25.518Z,0
2018-01-06T03:27:25.458Z,0
2018-01-06T03:28:26.090Z,0
2018-01-06T03:29:25.564Z,0
2018-01-06T03:30:25.899Z,0
2018-01-06T03:31:26.102Z,0
2018-01-06T03:32:26.756Z,0
2018-01-06T03:33:26.984Z,0
2018-01-06T03:34:26.585Z,0
2018-01-06T03:35:27.257Z,0
2018-01-06T03:36:27.499Z,0
2018-01-06T03:37:27.029Z,0
2018-01-06T03:38:28.417Z,0
2018-01-06T03:39:27.230Z,0
2018-01-06T03:40:27.650Z,0
2018-01-06T03:41:27.760Z,0
2018-01-06T03:42:28.428Z,0
2018-01-06T03:43:28.751Z,0
2018-01-06T03:44:28.553Z,0
2018-01-06T03:45:27.932Z,0
2018-01-06T03:46:28.694Z,0
2018-01-06T03:47:29.142Z,0
2018-01-06T03:48:28.993Z,0
2018-01-06T03:49:28.397Z,0
2018-01-06T03:50:28.638Z,0
2018-01-06T03:51:28.404Z,0
2018-01-06T03:52:28.695Z,0
2018-01-06T03:53:29.031Z,0
2018-01-06T03:54:29.037Z,0
2018-01-06T03:55:29.788Z,0
2018-01-06T03:56:28.756Z,0
2018-01-06T03:57:30.124Z,0
2018-01-06T03:58:29.068Z,0
2018-01-06T03:59:29.439Z,0
2018-01-06T04:00:29.868Z,0
2018-01-06T04:01:30.712Z,0
2018-01-06T04:02:30.826Z,0
2018-01-06T04:03:30.740Z,0
2018-01-06T04:04:30.557Z,0
2018-01-06T04:05:31.077Z,0
2018-01-06T04:06:31.353Z,0
2018-01-06T04:07:31.666Z,0
2018-01-06T04:08:31.651Z,0
2018-01-06T04:09:31.541Z,0
2018-01-06T04:10:31.922Z,0
2018-01-06T04:11:31.258Z,0
2018-01-06T04:12:32.048Z,0
2018-01-06T04:13:32.002Z,0
2018-01-06T04:14:32.142Z,0
2018-01-06T04:15:32.818Z,0
2018-01-06T04:16:32.561Z,0
2018-01-06T04:17:32.915Z,0
2018-01-06T04:18:32.721Z,0
2018-01-06T04:19:32.603Z,0
2018-01-06T04:20:32.756Z,0
2018-01-06T04:21:33.041Z,0
2018-01-06T04:22:33.193Z,0
2018-01-06T04:23:33.012Z,0
2018-01-06T04:24:33.795Z,0
2018-01-06T04:25:34.026Z,0
2018-01-06T04:26:33.508Z,0
2018-01-06T04:27:33.223Z,0
2018-01-06T04:28:33.912Z,0
2018-01-06T04:29:34.294Z,0
2018-01-06T04:30:33.788Z,0
2018-01-06T04:31:33.927Z,0
2018-01-06T04:32:33.694Z,0
2018-01-06T04:33:34.255Z,0
2018-01-06T04:34:34.344Z,0
2018-01-06T04:35:34.932Z,0
2018-01-06T04:36:35.498Z,0
2018-01-06T04:37:35.171Z,0
2018-01-06T04:38:35.118Z,0
2018-01-06T04:39:34.875Z,0
2018-01-06T04:40:35.087Z,0
2018-01-06T04:41:35.083Z,0
2018-01-06T04:42:35.760Z,0
2018-01-06T04:43:35.395Z,0
2018-01-06T04:44:35.564Z,0
2018-01-06T04:45:35.575Z,0
2018-01-06T04:46:35.959Z,0
2018-01-06T04:47:35.856Z,0
2018-01-06T04:48:35.888Z,0
2018-01-06T04:49:36.636Z,0
2018-01-06T04:50:36.526Z,0
2018-01-06T04:51:36.020Z,0
2018-01-06T04:52:36.267Z,0
2018-01-06T04:53:36.670Z,0
2018-01-06T04:54:37.128Z,0
2018-01-06T04:55:37.222Z,0
2018-01-06T04:56:37.175Z,0
2018-01-06T04:57:38.368Z,0
2018-01-06T04:58:38.005Z,0
2018-01-06T04:59:38.490Z,0
2018-01-06T05:00:37.451Z,0
2018-01-06T05:01:37.906Z,0
2018-01-06T05:02:38.058Z,0
2018-01-06T05:03:39.238Z,0
2018-01-06T05:04:38.456Z,0
2018-01-06T05:05:38.681Z,0
2018-01-06T05:06:38.166Z,0
2018-01-06T05:07:39.000Z,0
2018-01-06T05:08:39.054Z,0
2018-01-06T05:09:38.469Z,0
2018-01-06T05:10:38.213Z,0
2018-01-06T05:11:39.117Z,0
2018-01-06T05:12:39.410Z,0
2018-01-06T05:13:39.551Z,0
2018-01-06T05:14:39.481Z,0
2018-01-06T05:15:39.469Z,0
2018-01-06T05:16:39.139Z,0
2018-01-06T05:17:39.193Z,0
2018-01-06T05:18:39.168Z,0
2018-01-06T05:19:38.845Z,0
2018-01-06T05:20:39.472Z,0
2018-01-06T05:21:39.028Z,0
2018-01-06T05:22:39.183Z,0
2018-01-06T05:23:39.599Z,0
2018-01-06T05:24:39.682Z,0
2018-01-06T05:25:39.367Z,0
2018-01-06T05:26:39.876Z,0
2018-01-06T05:27:39.678Z,0
2018-01-06T05:28:39.608Z,0
2018-01-06T05:29:39.721Z,0
2018-01-06T05:30:40.929Z,0
2018-01-06T05:31:39.927Z,0
2018-01-06T05:32:40.515Z,0
2018-01-06T05:33:40.709Z,0
2018-01-06T05:34:40.646Z,0
2018-01-06T05:35:40.283Z,0
2018-01-06T05:36:40.539Z,0
2018-01-06T05:37:40.696Z,0
2018-01-06T05:38:41.006Z,0
2018-01-06T05:39:40.782Z,0
2018-01-06T05:40:40.926Z,0
2018-01-06T05:41:41.218Z,0
2018-01-06T05:42:42.331Z,0
2018-01-06T05:43:41.669Z,0
2018-01-06T05:44:41.775Z,0
2018-01-06T05:45:41.976Z,0
2018-01-06T05:46:42.395Z,0
2018-01-06T05:47:42.034Z,0
2018-01-06T05:48:42.519Z,0
2018-01-06T05:49:42.498Z,0
2018-01-06T05:50:42.673Z,0
2018-01-06T05:51:42.872Z,0
2018-01-06T05:52:43.105Z,0
2018-01-06T05:53:43.457Z,0
2018-01-06T05:54:43.281Z,0
2018-01-06T05:55:43.730Z,0
2018-01-06T05:56:43.477Z,0
2018-01-06T05:57:43.479Z,0
2018-01-06T05:58:44.104Z,0
2018-01-06T05:59:44.228Z,0
2018-01-06T06:00:44.476Z,0
2018-01-06T06:01:44.594Z,0
2018-01-06T06:02:44.340Z,0
2018-01-06T06:03:44.851Z,0
2018-01-06T06:04:44.856Z,0
2018-01-06T06:05:44.875Z,0
2018-01-06T06:06:45.349Z,0
2018-01-06T06:07:45.685Z,0
2018-01-06T06:08:45.088Z,0
2018-01-06T06:09:45.729Z,0
2018-01-06T06:10:45.759Z,0
2018-01-06T06:11:45.547Z,0
2018-01-06T06:12:45.890Z,0
2018-01-06T06:13:45.952Z,0
2018-01-06T06:14:46.374Z,0
2018-01-06T06:15:46.191Z,0
2018-01-06T06:16:46.475Z,0
2018-01-06T06:17:46.499Z,0
2018-01-06T06:18:46.870Z,0
2018-01-06T06:19:47.073Z,0
2018-01-06T06:20:47.023Z,0
2018-01-06T06:21:47.177Z,0
2018-01-06T06:22:47.683Z,0
2018-01-06T06:23:47.896Z,0
2018-01-06T06:24:47.227Z,0
2018-01-06T06:25:47.038Z,0
2018-01-06T06:26:47.674Z,0
2018-01-06T06:27:48.022Z,0
2018-01-06T06:28:48.181Z,0
2018-01-06T06:29:48.844Z,0
2018-01-06T06:30:48.232Z,0
2018-01-06T06:31:48.581Z,0
2018-01-06T06:32:48.976Z,0
2018-01-06T06:33:48.887Z,0
2018-01-06T06:34:49.181Z,0
2018-01-06T06:35:49.387Z,0
2018-01-06T06:36:50.701Z,0
2018-01-06T06:37:50.394Z,0
2018-01-06T06:38:50.515Z,0
2018-01-06T06:39:50.619Z,0
2018-01-06T06:40:50.376Z,0
2018-01-06T06:41:50.994Z,0
2018-01-06T06:42:51.097Z,0
2018-01-06T06:43:50.592Z,0
2018-01-06T06:44:50.908Z,0
2018-01-06T06:45:51.413Z,0
2018-01-06T06:46:51.103Z,0
2018-01-06T06:47:50.820Z,0
2018-01-06T06:48:51.569Z,0
2018-01-06T06:49:51.359Z,0
2018-01-06T06:50:51.504Z,0
2018-01-06T06:51:51.577Z,0
2018-01-06T06:52:51.769Z,0
2018-01-06T06:53:52.417Z,0
2018-01-06T06:54:52.201Z,0
2018-01-06T06:55:52.620Z,0
2018-01-06T06:56:52.476Z,0
2018-01-06T06:57:52.833Z,0
2018-01-06T06:58:52.927Z,0
2018-01-06T06:59:52.990Z,0
2018-01-06T07:00:53.056Z,0
2018-01-06T07:01:53.260Z,0
2018-01-06T07:02:53.217Z,0
2018-01-06T07:03:53.868Z,0
2018-01-06T07:04:53.403Z,0
2018-01-06T07:05:53.274Z,0
2018-01-06T07:06:53.812Z,5
2018-01-06T07:07:54.185Z,5
2018-01-06T07:08:53.644Z,5
2018-01-06T07:09:54.006Z,5
2018-01-06T07:10:54.054Z,5
2018-01-06T07:11:54.709Z,5
2018-01-06T07:12:54.479Z,5
2018-01-06T07:13:54.478Z,5
2018-01-06T07:14:54.568Z,5
2018-01-06T07:15:54.202Z,10
2018-01-06T07:16:55.012Z,10
2018-01-06T07:17:55.409Z,10
2018-01-06T07:18:55.581Z,10
2018-01-06T07:19:55.713Z,10
2018-01-06T07:20:56.304Z,15
2018-01-06T07:21:56.208Z,15
2018-01-06T07:22:55.940Z,15
2018-01-06T07:23:56.732Z,15
2018-01-06T07:24:56.839Z,15
2018-01-06T07:25:57.196Z,20
2018-01-06T07:26:57.027Z,20
2018-01-06T07:27:56.776Z,20
2018-01-06T07:28:56.898Z,25
2018-01-06T07:29:57.504Z,25
2018-01-06T07:30:57.328Z,25
2018-01-06T07:31:57.631Z,25
2018-01-06T07:32:57.842Z,30
2018-01-06T07:33:58.066Z,30
2018-01-06T07:34:57.876Z,30
2018-01-06T07:35:58.145Z,35
2018-01-06T07:36:58.056Z,35
2018-01-06T07:37:58.553Z,35
2018-01-06T07:38:58.481Z,40
2018-01-06T07:39:58.298Z,40
2018-01-06T07:40:58.717Z,40
2018-01-06T07:41:58.833Z,40
2018-01-06T07:42:58.922Z,45
2018-01-06T07:43:58.742Z,45
2018-01-06T07:44:59.010Z,45
2018-01-06T07:45:59.233Z,45
2018-01-06T07:46:59.167Z,45
2018-01-06T07:47:59.316Z,45
2018-01-06T07:48:59.718Z,50
2018-01-06T07:49:59.605Z,50
2018-01-06T07:50:59.395Z,50
2018-01-06T07:52:00.184Z,55
2018-01-06T07:53:00.455Z,55
2018-01-06T07:54:00.249Z,60
2018-01-06T07:55:00.406Z,60
2018-01-06T07:56:00.671Z,65
2018-01-06T07:57:01.122Z,65
2018-01-06T07:58:01.468Z,65
2018-01-06T07:59:01.003Z,65
2018-01-06T08:01:01.734Z,65
2018-01-06T08:02:01.396Z,70
2018-01-06T08:03:01.740Z,70
2018-01-06T08:04:01.747Z,70
2018-01-06T08:05:01.749Z,70
2018-01-06T08:06:01.650Z,70
2018-01-06T08:07:01.745Z,75
2018-01-06T08:08:01.658Z,75
2018-01-06T08:09:02.213Z,75
2018-01-06T08:10:02.367Z,75
2018-01-06T08:11:02.359Z,75
2018-01-06T08:12:01.916Z,75
2018-01-06T08:13:01.936Z,75
2018-01-06T08:14:02.034Z,75
2018-01-06T08:15:02.687Z,75
2018-01-06T08:16:02.481Z,75
2018-01-06T08:17:02.904Z,75
2018-01-06T08:18:02.734Z,75
2018-01-06T08:19:03.162Z,75
2018-01-06T08:20:03.208Z,75
2018-01-06T08:21:03.382Z,75
2018-01-06T08:22:03.246Z,80
2018-01-06T08:23:03.423Z,80
2018-01-06T08:24:03.960Z,85
2018-01-06T08:25:04.022Z,85
2018-01-06T08:26:04.222Z,90
2018-01-06T08:27:03.732Z,90
2018-01-06T08:28:04.208Z,90
2018-01-06T08:29:04.090Z,90
2018-01-06T08:30:04.175Z,90
2018-01-06T08:31:04.296Z,90
2018-01-06T08:32:04.070Z,90
2018-01-06T08:33:04.355Z,90
2018-01-06T08:34:04.548Z,90
2018-01-06T08:35:05.128Z,95
2018-01-06T08:36:04.994Z,100
2018-01-06T08:37:05.761Z,100
2018-01-06T08:38:05.132Z,105
2018-01-06T08:39:05.975Z,110
2018-01-06T08:40:05.684Z,115
2018-01-06T08:41:05.812Z,120
2018-01-06T08:42:06.042Z,125
2018-01-06T08:43:06.095Z,130
2018-01-06T08:44:05.677Z,135
2018-01-06T08:45:06.014Z,135
2018-01-06T08:46:05.911Z,140
2018-01-06T08:47:06.537Z,140
2018-01-06T08:48:06.353Z,145
2018-01-06T08:49:06.846Z,145
2018-01-06T08:50:05.843Z,150
2018-01-06T08:51:06.321Z,150
2018-01-06T08:52:06.805Z,150
2018-01-06T08:53:06.963Z,150
2018-01-06T08:54:07.936Z,150
2018-01-06T08:55:07.776Z,140
2018-01-06T08:56:07.899Z,140
2018-01-06T08:57:07.701Z,140
2018-01-06T08:58:07.411Z,145
2018-01-06T08:59:07.295Z,145
2018-01-06T09:00:22.298Z,150
2018-01-06T09:01:07.420Z,155
2018-01-06T09:02:07.750Z,155
2018-01-06T09:03:07.963Z,160
2018-01-06T09:04:07.116Z,160
2018-01-06T09:05:07.584Z,165
2018-01-06T09:06:07.945Z,160
2018-01-06T09:07:08.710Z,160
2018-01-06T09:08:09.633Z,160
2018-01-06T09:09:11.429Z,165
2018-01-06T09:10:09.757Z,165
2018-01-06T09:11:11.400Z,170
2018-01-06T09:12:11.598Z,175
2018-01-06T09:13:10.933Z,180
2018-01-06T09:14:11.360Z,180
2018-01-06T09:15:09.512Z,185
2018-01-06T09:16:11.607Z,200
2018-01-06T09:17:11.054Z,200
2018-01-06T09:18:11.790Z,205
2018-01-06T09:19:11.308Z,210
2018-01-06T09:20:17.630Z,205
2018-01-06T09:21:18.000Z,200
2018-01-06T09:22:17.596Z,205
2018-01-06T09:23:18.592Z,195
2018-01-06T09:24:18.548Z,195
2018-01-06T09:25:16.847Z,195
2018-01-06T09:26:16.742Z,195
2018-01-06T09:27:16.793Z,190
2018-01-06T09:28:17.478Z,190
2018-01-06T09:29:16.958Z,195
2018-01-06T09:30:17.202Z,200
2018-01-06T09:31:17.411Z,205
2018-01-06T09:32:17.033Z,200
2018-01-06T09:33:18.234Z,215
2018-01-06T09:35:16.536Z,210
2018-01-06T09:36:16.718Z,210
2018-01-06T09:37:17.275Z,215
2018-01-06T09:38:16.209Z,210
2018-01-06T09:39:16.555Z,205
2018-01-06T09:40:16.665Z,195
2018-01-06T09:41:17.175Z,200
2018-01-06T09:42:15.975Z,210
2018-01-06T09:43:16.785Z,205
2018-01-06T09:44:16.992Z,220
2018-01-06T09:45:17.137Z,210
2018-01-06T09:46:17.760Z,240
2018-01-06T09:47:17.629Z,220
2018-01-06T09:48:18.000Z,225
2018-01-06T09:49:17.897Z,225
2018-01-06T09:50:18.204Z,230
2018-01-06T09:51:18.176Z,225
2018-01-06T09:52:18.841Z,225
2018-01-06T09:53:18.677Z,210
2018-01-06T09:54:18.129Z,205
2018-01-06T09:55:18.645Z,200
2018-01-06T09:56:18.016Z,200
2018-01-06T09:57:18.454Z,190
2018-01-06T09:58:18.609Z,195
2018-01-06T09:59:18.610Z,195
2018-01-06T10:00:33.636Z,220
2018-01-06T10:01:33.845Z,240
2018-01-06T10:02:33.853Z,245
2018-01-06T10:03:33.537Z,250
2018-01-06T10:04:33.716Z,255
2018-01-06T10:05:34.161Z,255
2018-01-06T10:06:33.851Z,265
2018-01-06T10:07:34.319Z,275
2018-01-06T10:08:33.555Z,225
2018-01-06T10:09:34.383Z,210
2018-01-06T10:10:34.190Z,205
2018-01-06T10:11:34.309Z,205
2018-01-06T10:12:36.663Z,205
2018-01-06T10:13:35.235Z,225
2018-01-06T10:14:35.642Z,220
2018-01-06T10:15:36.029Z,240
2018-01-06T10:16:35.893Z,240
2018-01-06T10:17:36.151Z,245
2018-01-06T10:18:35.807Z,245
2018-01-06T10:19:36.136Z,250
2018-01-06T10:20:36.339Z,255
2018-01-06T10:21:36.467Z,270
2018-01-06T10:22:36.338Z,265
2018-01-06T10:23:36.623Z,245
2018-01-06T10:24:36.808Z,210
2018-01-06T10:25:36.179Z,200
2018-01-06T10:26:36.739Z,195
2018-01-06T10:27:36.832Z,195
2018-01-06T10:28:36.961Z,200
2018-01-06T10:29:37.104Z,185
2018-01-06T10:30:37.301Z,180
2018-01-06T10:31:37.688Z,180
2018-01-06T10:32:38.365Z,190
2018-01-06T10:33:38.357Z,190
2018-01-06T10:34:38.560Z,195
2018-01-06T10:35:39.009Z,195
2018-01-06T10:36:40.001Z,200
2018-01-06T10:37:38.520Z,200
2018-01-06T10:38:38.872Z,205
2018-01-06T10:39:39.596Z,215
2018-01-06T10:40:39.269Z,215
2018-01-06T10:41:40.021Z,220
2018-01-06T10:42:39.496Z,240
2018-01-06T10:43:40.695Z,260
2018-01-06T10:44:40.429Z,255
2018-01-06T10:45:41.264Z,280
2018-01-06T10:46:41.187Z,270
2018-01-06T10:47:41.008Z,280
2018-01-06T10:48:40.795Z,255
2018-01-06T10:49:41.694Z,260
2018-01-06T10:50:41.645Z,230
2018-01-06T10:51:41.246Z,220
2018-01-06T10:52:41.752Z,215
2018-01-06T10:53:41.946Z,215
2018-01-06T10:54:42.140Z,210
2018-01-06T10:55:41.996Z,205
2018-01-06T10:56:42.838Z,195
2018-01-06T10:57:43.523Z,190
2018-01-06T10:58:43.087Z,185
2018-01-06T10:59:42.530Z,175
2018-01-06T11:00:43.135Z,175
2018-01-06T11:01:43.690Z,180
2018-01-06T11:02:43.616Z,185
2018-01-06T11:03:45.004Z,175
2018-01-06T11:04:44.173Z,170
2018-01-06T11:05:44.926Z,180
2018-01-06T11:06:45.197Z,195
2018-01-06T11:07:43.671Z,200
2018-01-06T11:08:45.148Z,205
2018-01-06T11:09:43.481Z,210
2018-01-06T11:10:43.443Z,210
2018-01-06T11:11:43.208Z,205
2018-01-06T11:12:43.270Z,205
2018-01-06T11:13:43.777Z,205
2018-01-06T11:14:43.942Z,195
2018-01-06T11:15:43.976Z,185
2018-01-06T11:16:44.393Z,175
2018-01-06T11:17:43.851Z,170
2018-01-06T11:18:44.187Z,165
2018-01-06T11:19:44.402Z,165
2018-01-06T11:20:45.061Z,160
2018-01-06T11:21:45.168Z,155
2018-01-06T11:22:45.195Z,155
2018-01-06T11:23:45.027Z,150
2018-01-06T11:24:45.748Z,145
2018-01-06T11:25:45.664Z,145
2018-01-06T11:26:45.761Z,145
2018-01-06T11:27:45.576Z,140
2018-01-06T11:28:45.575Z,140
2018-01-06T11:29:45.685Z,140
2018-01-06T11:30:45.868Z,140
2018-01-06T11:31:46.309Z,145
2018-01-06T11:32:46.429Z,145
2018-01-06T11:33:46.850Z,140
2018-01-06T11:34:46.766Z,135
2018-01-06T11:35:47.224Z,130
2018-01-06T11:36:47.226Z,125
2018-01-06T11:37:47.404Z,125
2018-01-06T11:38:47.588Z,130
2018-01-06T11:39:47.747Z,135
2018-01-06T11:40:48.407Z,135
2018-01-06T11:41:48.541Z,140
2018-01-06T11:42:48.166Z,145
2018-01-06T11:43:48.353Z,155
2018-01-06T11:44:48.166Z,155
2018-01-06T11:45:48.746Z,160
2018-01-06T11:46:48.532Z,160
2018-01-06T11:47:49.243Z,155
2018-01-06T11:48:48.538Z,165
2018-01-06T11:49:48.583Z,170
2018-01-06T11:50:48.968Z,180
2018-01-06T11:51:49.334Z,190
2018-01-06T11:52:49.122Z,200
2018-01-06T11:53:49.258Z,200
2018-01-06T11:54:49.556Z,200
2018-01-06T11:55:49.257Z,200
2018-01-06T11:56:49.688Z,185
2018-01-06T11:57:49.432Z,160
2018-01-06T11:58:48.787Z,145
2018-01-06T11:59:49.680Z,135
2018-01-06T12:00:49.878Z,125
2018-01-06T12:01:49.597Z,125
2018-01-06T12:02:49.992Z,125
2018-01-06T12:03:50.004Z,125
2018-01-06T12:04:49.659Z,130
2018-01-06T12:05:49.877Z,130
2018-01-06T12:06:50.095Z,135
2018-01-06T12:07:50.039Z,140
2018-01-06T12:08:50.433Z,145
2018-01-06T12:09:50.001Z,140
2018-01-06T12:10:50.081Z,145
2018-01-06T12:11:50.469Z,135
2018-01-06T12:12:50.968Z,130
2018-01-06T12:13:51.445Z,130
2018-01-06T12:14:51.725Z,130
2018-01-06T12:15:51.036Z,135
2018-01-06T12:16:51.364Z,140
2018-01-06T12:17:52.229Z,140
2018-01-06T12:18:52.237Z,145
2018-01-06T12:19:52.612Z,145
2018-01-06T12:20:51.737Z,145
2018-01-06T12:21:51.675Z,150
2018-01-06T12:22:52.672Z,150
2018-01-06T12:23:52.674Z,150
2018-01-06T12:24:52.456Z,150
2018-01-06T12:25:53.065Z,145
2018-01-06T12:26:54.228Z,150
2018-01-06T12:27:53.148Z,150
2018-01-06T12:28:52.762Z,150
2018-01-06T12:29:52.808Z,145
2018-01-06T12:30:52.480Z,140
2018-01-06T12:31:53.161Z,140
2018-01-06T12:32:52.859Z,135
2018-01-06T12:33:53.460Z,140
2018-01-06T12:34:53.799Z,140
2018-01-06T12:35:52.865Z,145
2018-01-06T12:36:53.056Z,140
2018-01-06T12:37:53.506Z,140
2018-01-06T12:38:53.778Z,140
2018-01-06T12:39:54.023Z,140
2018-01-06T12:40:53.452Z,140
2018-01-06T12:41:53.713Z,140
2018-01-06T12:42:53.878Z,140
2018-01-06T12:43:54.504Z,145
2018-01-06T12:44:54.615Z,145
2018-01-06T12:45:54.516Z,145
2018-01-06T12:46:54.696Z,145
2018-01-06T12:47:54.949Z,145
2018-01-06T12:48:55.656Z,140
2018-01-06T12:49:55.127Z,135
2018-01-06T12:50:55.470Z,135
2018-01-06T12:51:55.635Z,135
2018-01-06T12:52:56.423Z,135
2018-01-06T12:53:57.635Z,130
2018-01-06T12:54:56.940Z,130
2018-01-06T12:55:56.724Z,135
2018-01-06T12:56:56.220Z,135
2018-01-06T12:57:56.350Z,130
2018-01-06T12:58:56.476Z,130
2018-01-06T12:59:57.109Z,125
2018-01-06T13:01:11.230Z,125
2018-01-06T13:01:56.658Z,120
2018-01-06T13:02:57.162Z,115
2018-01-06T13:03:57.360Z,115
2018-01-06T13:04:57.279Z,110
2018-01-06T13:05:57.075Z,115
2018-01-06T13:06:56.946Z,115
2018-01-06T13:07:57.763Z,115
2018-01-06T13:08:57.328Z,115
2018-01-06T13:09:58.379Z,115
2018-01-06T13:10:57.573Z,115
2018-01-06T13:11:57.713Z,115
2018-01-06T13:12:58.034Z,110
2018-01-06T13:13:58.378Z,110
2018-01-06T13:14:59.051Z,105
2018-01-06T13:15:59.090Z,100
2018-01-06T13:16:59.546Z,100
2018-01-06T13:17:59.468Z,100
2018-01-06T13:19:04.587Z,100
2018-01-06T13:20:04.744Z,100
2018-01-06T13:21:04.129Z,100
2018-01-06T13:22:04.148Z,95
2018-01-06T13:23:04.514Z,95
2018-01-06T13:24:04.721Z,95
2018-01-06T13:25:04.760Z,95
2018-01-06T13:26:04.467Z,90
2018-01-06T13:27:04.759Z,90
2018-01-06T13:28:04.815Z,85
2018-01-06T13:29:04.388Z,85
2018-01-06T13:30:05.175Z,85
2018-01-06T13:31:04.702Z,90
2018-01-06T13:32:05.040Z,85
2018-01-06T13:33:05.301Z,85
2018-01-06T13:34:05.862Z,80
2018-01-06T13:35:05.803Z,80
2018-01-06T13:36:06.291Z,80
2018-01-06T13:37:06.268Z,80
2018-01-06T13:38:06.144Z,80
2018-01-06T13:39:06.541Z,75
2018-01-06T13:40:06.945Z,75
2018-01-06T13:41:07.044Z,70
2018-01-06T13:42:07.746Z,65
2018-01-06T13:43:07.649Z,65
2018-01-06T13:44:08.193Z,65
2018-01-06T13:45:08.913Z,65
2018-01-06T13:46:08.942Z,65
2018-01-06T13:47:08.862Z,65
2018-01-06T13:48:09.411Z,65
2018-01-06T13:49:08.868Z,65
2018-01-06T13:50:09.033Z,65
2018-01-06T13:51:09.267Z,65
2018-01-06T13:52:09.689Z,65
2018-01-06T13:53:09.817Z,60
2018-01-06T13:54:09.604Z,60
2018-01-06T13:55:09.608Z,60
2018-01-06T13:56:09.483Z,60
2018-01-06T13:57:09.773Z,60
2018-01-06T13:58:10.012Z,60
2018-01-06T13:59:10.652Z,55
2018-01-06T14:00:25.065Z,55
2018-01-06T14:01:10.764Z,55
2018-01-06T14:02:10.754Z,50
2018-01-06T14:03:10.779Z,50
2018-01-06T14:04:11.838Z,50
2018-01-06T14:05:11.391Z,45
2018-01-06T14:06:11.548Z,45
2018-01-06T14:07:11.663Z,45
2018-01-06T14:08:11.704Z,40
2018-01-06T14:09:11.108Z,40
2018-01-06T14:10:11.430Z,40
2018-01-06T14:11:11.681Z,40
2018-01-06T14:12:11.421Z,35
2018-01-06T14:13:12.624Z,35
2018-01-06T14:14:12.372Z,35
2018-01-06T14:15:12.075Z,30
2018-01-06T14:16:12.591Z,30
2018-01-06T14:17:13.228Z,30
2018-01-06T14:18:13.210Z,25
2018-01-06T14:19:12.864Z,25
2018-01-06T14:20:12.666Z,25
2018-01-06T14:21:12.717Z,25
2018-01-06T14:22:12.280Z,20
2018-01-06T14:23:12.446Z,20
2018-01-06T14:24:13.330Z,20
2018-01-06T14:25:13.372Z,20